San Vicent del Raspeig, Spain
Current Conditions -  °F | °C
As of 3:00 PM on Friday 24 Oct 2014 (Local Time) from LEAL Reporting Station
Clear Clear  
Wind Chill: 79°   Ceiling: Unl
Heat Index: 79°   Visibility: 6mi
Dew Point: 46°   Wind: 7mph
Humidity: 32%   Direction: 80°E
Pressure: 30.03"   Gusts: NA
Location:  38.4°N, 0.53°W
Report Text: LEAL 241300Z 08006KT 050V120 CAVOK 26/08 Q1017 NOSIG
Loading
Personal Weather Stations






























Interactive Weather Map
Tropical Storm Tracking
New forecast layout! Learn more

10-Day Weather Forecast

Advertisements
Track Severe Weather on mobile